Time;durP1;ratioP1;P1;durP2;ratioP2;P2;SDS_P1;SDS_P2;PMS_P1;PMS_P2;Temp;Humidity;BMP_temperature;BMP_pressure;BME280_temperature;BME280_humidity;BME280_pressure;Samples;Min_cycle;Max_cycle;Signal;HPM_P1;HPM_P2
2021/09/02 00:01:51;;;;;;;19.60;6.20;;;;;;;;;;4983163;28;20054;-56
2021/09/02 00:04:17;;;;;;;16.77;6.60;;;;;;;;;;4983477;28;20050;-55
2021/09/02 00:06:43;;;;;;;16.20;6.20;;;;;;;;;;4985436;28;20046;-54
2021/09/02 00:09:10;;;;;;;16.05;6.88;;;;;;;;;;4981423;28;20098;-56
2021/09/02 00:11:36;;;;;;;16.52;6.65;;;;;;;;;;4971711;28;20102;-55
2021/09/02 00:14:04;;;;;;;15.68;6.35;;;;;;;;;;4964981;28;20053;-55
2021/09/02 00:16:32;;;;;;;17.37;6.53;;;;;;;;;;4994310;28;20151;-55
2021/09/02 00:18:59;;;;;;;16.35;6.07;;;;;;;;;;5002684;28;20358;-54
2021/09/02 00:21:26;;;;;;;16.13;5.85;;;;;;;;;;5001259;28;20069;-56
2021/09/02 00:23:53;;;;;;;13.68;5.95;;;;;;;;;;5019151;28;20052;-55
2021/09/02 00:26:19;;;;;;;13.43;6.47;;;;;;;;;;5016154;28;20038;-56
2021/09/02 00:28:46;;;;;;;16.58;6.65;;;;;;;;;;5003674;28;20132;-55
2021/09/02 00:31:14;;;;;;;15.70;5.90;;;;;;;;;;5001677;28;20151;-56
2021/09/02 00:33:40;;;;;;;16.00;6.45;;;;;;;;;;5004079;28;20038;-56
2021/09/02 00:36:07;;;;;;;15.23;6.68;;;;;;;;;;5000524;28;20042;-56
2021/09/02 00:38:33;;;;;;;15.15;6.75;;;;;;;;;;5003631;28;20066;-55
2021/09/02 00:41:00;;;;;;;16.17;6.07;;;;;;;;;;4996827;28;20061;-56
2021/09/02 00:43:27;;;;;;;14.55;5.93;;;;;;;;;;5004311;28;20067;-55
2021/09/02 00:45:54;;;;;;;14.38;6.00;;;;;;;;;;5001277;28;20045;-54
2021/09/02 00:48:22;;;;;;;13.50;5.97;;;;;;;;;;5002898;28;20096;-55
2021/09/02 00:50:48;;;;;;;17.13;6.50;;;;;;;;;;5000028;28;20038;-55
2021/09/02 00:53:15;;;;;;;15.68;6.63;;;;;;;;;;4987436;28;20120;-55
2021/09/02 00:55:42;;;;;;;17.58;6.93;;;;;;;;;;5004614;28;20043;-56
2021/09/02 00:58:08;;;;;;;13.25;6.10;;;;;;;;;;4984592;28;20120;-55
2021/09/02 01:00:35;;;;;;;19.02;5.93;;;;;;;;;;5002374;28;20054;-56
2021/09/02 01:03:01;;;;;;;15.20;6.43;;;;;;;;;;5003320;28;20050;-56
2021/09/02 01:05:29;;;;;;;14.52;6.30;;;;;;;;;;4987768;28;20125;-54
2021/09/02 01:07:57;;;;;;;15.90;6.22;;;;;;;;;;4952794;28;20047;-55
2021/09/02 01:10:24;;;;;;;16.70;6.50;;;;;;;;;;4952171;28;20101;-54
2021/09/02 01:12:51;;;;;;;16.02;6.30;;;;;;;;;;4952992;28;20054;-54
2021/09/02 01:15:18;;;;;;;14.15;5.93;;;;;;;;;;4948706;28;20108;-55
2021/09/02 01:17:46;;;;;;;13.80;6.85;;;;;;;;;;4953905;28;20124;-55
2021/09/02 01:20:13;;;;;;;16.13;6.43;;;;;;;;;;4985385;28;20105;-55
2021/09/02 01:22:41;;;;;;;21.13;6.47;;;;;;;;;;4958973;28;20297;-54
2021/09/02 01:25:10;;;;;;;11.45;5.78;;;;;;;;;;4946935;28;20133;-56
2021/09/02 01:27:38;;;;;;;18.73;6.20;;;;;;;;;;4946150;28;20137;-55
2021/09/02 01:30:06;;;;;;;15.07;6.47;;;;;;;;;;4950840;28;20050;-55
2021/09/02 01:32:34;;;;;;;15.17;5.83;;;;;;;;;;4945281;28;20039;-56
2021/09/02 01:35:02;;;;;;;13.15;5.90;;;;;;;;;;4948518;28;20067;-56
2021/09/02 01:37:37;;;;;;;14.15;6.18;;;;;;;;;;4946513;28;20039;-56
2021/09/02 01:40:03;;;;;;;18.42;6.25;;;;;;;;;;4947977;28;20043;-55
2021/09/02 01:42:31;;;;;;;15.48;6.35;;;;;;;;;;4946273;28;20038;-55
2021/09/02 01:45:01;;;;;;;14.43;5.40;;;;;;;;;;4945298;28;20058;-56
2021/09/02 01:47:28;;;;;;;19.58;5.80;;;;;;;;;;4964105;28;20288;-56
2021/09/02 01:49:58;;;;;;;17.95;6.10;;;;;;;;;;4959707;28;20120;-56
2021/09/02 01:52:24;;;;;;;28.48;6.18;;;;;;;;;;4966992;28;20052;-56
2021/09/02 01:54:51;;;;;;;15.40;6.15;;;;;;;;;;4974380;28;20066;-56
2021/09/02 01:57:17;;;;;;;16.65;6.18;;;;;;;;;;4967744;28;20158;-56
2021/09/02 01:59:45;;;;;;;11.20;5.45;;;;;;;;;;4952551;28;20058;-55
2021/09/02 02:02:12;;;;;;;14.05;5.47;;;;;;;;;;4948591;28;20051;-55
2021/09/02 02:04:38;;;;;;;12.57;5.22;;;;;;;;;;4965312;28;20148;-55
2021/09/02 02:07:07;;;;;;;12.00;6.13;;;;;;;;;;5002787;28;20093;-56
2021/09/02 02:09:33;;;;;;;12.50;5.28;;;;;;;;;;5001733;28;20205;-56
2021/09/02 02:12:00;;;;;;;15.27;5.55;;;;;;;;;;4985636;28;20087;-54
2021/09/02 02:14:26;;;;;;;11.20;4.65;;;;;;;;;;4964634;28;20039;-55
2021/09/02 02:16:55;;;;;;;15.10;4.97;;;;;;;;;;4966451;28;20047;-57
2021/09/02 02:19:22;;;;;;;11.65;5.13;;;;;;;;;;4964552;28;20042;-55
2021/09/02 02:21:48;;;;;;;16.67;5.35;;;;;;;;;;4982339;28;20120;-54
2021/09/02 02:24:15;;;;;;;11.63;4.80;;;;;;;;;;4985482;28;20116;-56
2021/09/02 02:26:44;;;;;;;16.48;4.85;;;;;;;;;;4996096;28;20046;-54
2021/09/02 02:29:10;;;;;;;14.73;5.18;;;;;;;;;;5001355;28;20078;-56
2021/09/02 02:31:37;;;;;;;9.40;4.28;;;;;;;;;;4996664;28;20233;-55
2021/09/02 02:34:05;;;;;;;14.68;5.22;;;;;;;;;;5000259;28;20117;-53
2021/09/02 02:36:31;;;;;;;12.95;4.82;;;;;;;;;;4984509;28;20039;-55
2021/09/02 02:38:58;;;;;;;11.55;4.75;;;;;;;;;;4967583;28;20055;-55
2021/09/02 02:41:24;;;;;;;12.20;5.22;;;;;;;;;;4982831;28;20117;-55
2021/09/02 02:43:51;;;;;;;10.77;4.75;;;;;;;;;;5000618;28;20112;-54
2021/09/02 02:46:17;;;;;;;12.82;5.50;;;;;;;;;;4998112;28;20066;-55
2021/09/02 02:48:45;;;;;;;13.23;5.07;;;;;;;;;;5002353;28;20039;-56
2021/09/02 02:51:13;;;;;;;14.35;5.47;;;;;;;;;;4990399;28;20062;-53
2021/09/02 02:53:40;;;;;;;14.55;5.35;;;;;;;;;;4966627;28;20039;-55
2021/09/02 02:56:08;;;;;;;14.32;5.05;;;;;;;;;;4990492;28;20050;-55
2021/09/02 02:58:35;;;;;;;11.93;5.38;;;;;;;;;;5002119;28;20115;-54
2021/09/02 03:01:02;;;;;;;11.35;5.00;;;;;;;;;;4998432;28;20038;-54
2021/09/02 03:03:28;;;;;;;14.07;5.45;;;;;;;;;;4983282;28;20049;-56
2021/09/02 03:05:55;;;;;;;15.40;4.85;;;;;;;;;;4983884;28;20038;-55
2021/09/02 03:08:23;;;;;;;13.93;5.32;;;;;;;;;;4982118;28;20046;-55
2021/09/02 03:10:49;;;;;;;14.35;4.82;;;;;;;;;;4978512;28;20034;-54
2021/09/02 03:13:16;;;;;;;11.35;5.65;;;;;;;;;;4963843;28;20120;-53
2021/09/02 03:15:42;;;;;;;12.73;4.70;;;;;;;;;;4965102;28;20053;-55
2021/09/02 03:18:09;;;;;;;13.18;5.20;;;;;;;;;;4977870;28;20053;-53
2021/09/02 03:20:35;;;;;;;11.18;5.20;;;;;;;;;;4985551;28;20054;-53
2021/09/02 03:23:02;;;;;;;11.73;4.60;;;;;;;;;;4970045;28;20061;-55
2021/09/02 03:25:30;;;;;;;18.40;5.68;;;;;;;;;;4966468;28;20045;-55
2021/09/02 03:27:57;;;;;;;15.70;5.07;;;;;;;;;;4962474;28;20043;-56
2021/09/02 03:30:23;;;;;;;12.93;5.05;;;;;;;;;;4966261;28;20042;-55
2021/09/02 03:32:50;;;;;;;10.73;4.40;;;;;;;;;;4981118;28;20067;-54
2021/09/02 03:35:16;;;;;;;13.32;5.47;;;;;;;;;;4964393;28;20038;-54
2021/09/02 03:37:43;;;;;;;10.77;4.57;;;;;;;;;;4967109;28;20119;-55
2021/09/02 03:40:09;;;;;;;11.23;4.57;;;;;;;;;;4985311;28;20057;-56
2021/09/02 03:42:37;;;;;;;11.73;4.90;;;;;;;;;;4980016;28;20060;-54
2021/09/02 03:45:04;;;;;;;12.40;4.57;;;;;;;;;;4981672;28;20042;-56
2021/09/02 03:47:31;;;;;;;12.00;4.75;;;;;;;;;;4981396;28;20281;-54
2021/09/02 03:49:57;;;;;;;13.82;4.70;;;;;;;;;;4962892;28;20050;-55
2021/09/02 03:52:24;;;;;;;10.30;4.10;;;;;;;;;;4981688;28;20046;-55
2021/09/02 03:54:50;;;;;;;13.00;4.78;;;;;;;;;;4991726;28;20090;-56
2021/09/02 03:57:18;;;;;;;13.30;4.50;;;;;;;;;;5005309;28;20045;-55
2021/09/02 03:59:46;;;;;;;12.30;4.90;;;;;;;;;;5001150;28;20112;-53
2021/09/02 04:02:12;;;;;;;10.43;4.37;;;;;;;;;;4987571;28;20035;-55
2021/09/02 04:04:39;;;;;;;14.98;5.03;;;;;;;;;;4978847;28;20046;-55
2021/09/02 04:07:05;;;;;;;11.68;4.82;;;;;;;;;;4980056;28;20049;-56
2021/09/02 04:09:32;;;;;;;13.02;4.68;;;;;;;;;;4981862;28;20046;-55
2021/09/02 04:11:58;;;;;;;13.40;4.03;;;;;;;;;;4968135;28;20058;-54
2021/09/02 04:14:24;;;;;;;12.13;4.47;;;;;;;;;;4976063;28;20038;-54
2021/09/02 04:16:55;;;;;;;16.52;5.07;;;;;;;;;;4991646;28;20041;-55
2021/09/02 04:19:21;;;;;;;13.48;4.55;;;;;;;;;;4980233;28;20046;-56
2021/09/02 04:21:49;;;;;;;16.05;4.90;;;;;;;;;;4985000;28;20041;-55
2021/09/02 04:24:16;;;;;;;11.27;4.45;;;;;;;;;;4978964;28;20057;-55
2021/09/02 04:26:43;;;;;;;12.77;5.13;;;;;;;;;;4966103;28;20078;-55
2021/09/02 04:29:09;;;;;;;10.70;4.93;;;;;;;;;;4980313;28;20138;-54
2021/09/02 04:31:36;;;;;;;13.02;5.70;;;;;;;;;;4981538;28;20128;-55
2021/09/02 04:34:04;;;;;;;12.40;4.90;;;;;;;;;;5002094;28;20050;-56
2021/09/02 04:36:30;;;;;;;12.33;5.03;;;;;;;;;;4977367;28;20054;-55
2021/09/02 04:38:57;;;;;;;11.82;5.22;;;;;;;;;;4981671;28;20342;-56
2021/09/02 04:41:23;;;;;;;12.38;4.50;;;;;;;;;;4979437;28;20046;-55
2021/09/02 04:43:50;;;;;;;11.88;5.03;;;;;;;;;;4979627;28;20039;-56
2021/09/02 04:46:16;;;;;;;14.80;5.07;;;;;;;;;;4980613;28;20050;-56
2021/09/02 04:48:43;;;;;;;15.27;4.97;;;;;;;;;;4984158;28;20053;-56
2021/09/02 04:51:11;;;;;;;12.77;5.05;;;;;;;;;;4979648;28;20061;-55
2021/09/02 04:53:37;;;;;;;13.25;5.10;;;;;;;;;;4983960;28;20090;-57
2021/09/02 04:56:04;;;;;;;16.20;5.15;;;;;;;;;;4981792;28;20113;-56
2021/09/02 04:58:30;;;;;;;13.30;5.20;;;;;;;;;;4982209;28;20051;-55
2021/09/02 05:00:57;;;;;;;12.20;4.97;;;;;;;;;;4979617;28;20102;-54
2021/09/02 05:03:23;;;;;;;14.20;5.05;;;;;;;;;;4982810;28;20042;-53
2021/09/02 05:05:52;;;;;;;14.73;5.13;;;;;;;;;;4998377;28;20025;-55
2021/09/02 05:08:21;;;;;;;14.95;5.95;;;;;;;;;;5006033;28;20053;-55
2021/09/02 05:10:48;;;;;;;13.90;5.78;;;;;;;;;;4995288;28;20038;-55
2021/09/02 05:13:15;;;;;;;17.55;5.65;;;;;;;;;;4967717;28;20093;-54
2021/09/02 05:15:41;;;;;;;16.63;5.70;;;;;;;;;;4979610;28;20053;-56
2021/09/02 05:18:09;;;;;;;14.88;5.15;;;;;;;;;;4980548;28;20042;-55
2021/09/02 05:20:35;;;;;;;13.90;5.43;;;;;;;;;;4980152;28;20128;-55
2021/09/02 05:23:02;;;;;;;15.57;4.88;;;;;;;;;;4980429;28;20042;-54
2021/09/02 05:25:35;;;;;;;14.23;5.50;;;;;;;;;;4996429;28;20046;-56
2021/09/02 05:28:01;;;;;;;13.77;5.82;;;;;;;;;;4977780;28;20042;-54
2021/09/02 05:30:28;;;;;;;12.73;5.20;;;;;;;;;;4981323;28;20054;-55
2021/09/02 05:32:54;;;;;;;13.93;5.20;;;;;;;;;;4976855;28;20124;-55
2021/09/02 05:35:21;;;;;;;13.63;5.55;;;;;;;;;;4982226;28;20042;-54
2021/09/02 05:37:47;;;;;;;15.10;5.50;;;;;;;;;;4977163;28;20116;-56
2021/09/02 05:40:14;;;;;;;17.38;5.63;;;;;;;;;;4996924;28;20066;-55
2021/09/02 05:42:42;;;;;;;14.40;5.82;;;;;;;;;;4977258;28;20038;-54
2021/09/02 05:45:09;;;;;;;19.57;5.70;;;;;;;;;;4981651;28;20098;-55
2021/09/02 05:47:36;;;;;;;12.48;4.90;;;;;;;;;;4977581;28;20291;-55
2021/09/02 05:50:04;;;;;;;14.48;5.43;;;;;;;;;;4980080;28;20046;-56
2021/09/02 05:52:30;;;;;;;13.50;5.13;;;;;;;;;;4976381;28;20046;-56
2021/09/02 05:54:58;;;;;;;14.77;4.88;;;;;;;;;;4980273;28;20050;-55
2021/09/02 05:57:24;;;;;;;14.68;5.97;;;;;;;;;;4981201;28;20044;-55
2021/09/02 05:59:52;;;;;;;13.75;5.38;;;;;;;;;;4997340;28;20047;-55
2021/09/02 06:02:19;;;;;;;15.82;5.93;;;;;;;;;;4986645;28;20061;-55
2021/09/02 06:04:46;;;;;;;18.48;6.15;;;;;;;;;;4974717;28;20109;-55
2021/09/02 06:07:12;;;;;;;14.98;6.22;;;;;;;;;;4982115;28;20026;-54
2021/09/02 06:09:39;;;;;;;14.13;5.20;;;;;;;;;;4978898;28;20050;-54
2021/09/02 06:12:06;;;;;;;13.07;4.70;;;;;;;;;;4998734;28;20042;-55
2021/09/02 06:14:32;;;;;;;13.68;5.25;;;;;;;;;;4975981;28;20061;-56
2021/09/02 06:17:00;;;;;;;13.02;4.85;;;;;;;;;;4985673;28;20046;-56
2021/09/02 06:19:26;;;;;;;14.73;5.45;;;;;;;;;;4977635;28;20054;-56
2021/09/02 06:21:53;;;;;;;14.30;5.45;;;;;;;;;;4981156;28;20057;-56
2021/09/02 06:24:19;;;;;;;15.25;5.40;;;;;;;;;;4977176;28;20054;-55
2021/09/02 06:26:46;;;;;;;15.05;4.97;;;;;;;;;;4999905;28;20046;-54
2021/09/02 06:29:12;;;;;;;12.48;5.15;;;;;;;;;;4977206;28;20060;-55
2021/09/02 06:31:39;;;;;;;15.25;4.95;;;;;;;;;;4981327;28;20094;-55
2021/09/02 06:34:07;;;;;;;15.52;4.50;;;;;;;;;;4977813;28;20042;-52
2021/09/02 06:36:34;;;;;;;14.00;5.13;;;;;;;;;;4976282;28;20165;-56
2021/09/02 06:39:00;;;;;;;14.07;4.70;;;;;;;;;;4982864;28;20070;-56
2021/09/02 06:41:26;;;;;;;13.85;4.75;;;;;;;;;;4975602;28;20082;-54
2021/09/02 06:43:53;;;;;;;13.50;4.88;;;;;;;;;;4995747;28;20074;-55
2021/09/02 06:46:20;;;;;;;11.27;4.53;;;;;;;;;;4976223;28;20038;-55
2021/09/02 06:48:47;;;;;;;13.25;4.78;;;;;;;;;;4977396;28;20034;-53
2021/09/02 06:51:15;;;;;;;16.80;4.87;;;;;;;;;;4979643;28;20070;-56
2021/09/02 06:53:42;;;;;;;15.40;4.80;;;;;;;;;;4998300;28;20276;-54
2021/09/02 06:56:08;;;;;;;15.18;4.05;;;;;;;;;;4976565;28;20297;-55
2021/09/02 06:58:35;;;;;;;14.45;4.72;;;;;;;;;;4980996;28;20061;-56
2021/09/02 07:01:01;;;;;;;12.93;4.90;;;;;;;;;;4975389;28;20043;-56
2021/09/02 07:03:28;;;;;;;13.77;4.43;;;;;;;;;;4982813;28;20049;-56
2021/09/02 07:05:54;;;;;;;12.65;4.32;;;;;;;;;;4977197;28;20049;-56
2021/09/02 07:08:22;;;;;;;11.73;4.10;;;;;;;;;;4978214;28;20046;-55
2021/09/02 07:10:49;;;;;;;10.88;3.95;;;;;;;;;;4993358;28;20051;-56
2021/09/02 07:13:15;;;;;;;12.15;4.32;;;;;;;;;;4999630;28;20038;-56
2021/09/02 07:15:42;;;;;;;12.50;3.80;;;;;;;;;;4992680;28;20054;-55
2021/09/02 07:18:08;;;;;;;11.90;3.83;;;;;;;;;;4981812;28;20046;-56
2021/09/02 07:20:35;;;;;;;10.43;3.33;;;;;;;;;;4980156;28;20063;-57
2021/09/02 07:23:01;;;;;;;8.55;3.35;;;;;;;;;;4995483;28;20051;-57
2021/09/02 07:25:29;;;;;;;12.07;2.90;;;;;;;;;;4979144;28;20058;-56
2021/09/02 07:27:56;;;;;;;8.85;3.10;;;;;;;;;;4979450;28;20046;-56
2021/09/02 07:30:22;;;;;;;10.70;3.35;;;;;;;;;;4978536;28;20038;-55
2021/09/02 07:32:49;;;;;;;10.07;3.25;;;;;;;;;;4993703;28;20131;-55
2021/09/02 07:35:15;;;;;;;9.00;3.13;;;;;;;;;;4978693;28;20128;-55
2021/09/02 07:37:42;;;;;;;9.48;3.13;;;;;;;;;;4995657;28;20058;-58
2021/09/02 07:40:09;;;;;;;15.13;3.20;;;;;;;;;;4979884;28;20042;-56
2021/09/02 07:42:37;;;;;;;12.43;3.03;;;;;;;;;;4978624;28;20116;-55
2021/09/02 07:45:04;;;;;;;14.77;3.22;;;;;;;;;;4975207;28;20074;-55
2021/09/02 07:47:33;;;;;;;10.45;3.15;;;;;;;;;;4974469;28;20042;-56
2021/09/02 07:50:00;;;;;;;13.10;3.30;;;;;;;;;;4980612;28;20066;-56
2021/09/02 07:52:26;;;;;;;10.43;3.47;;;;;;;;;;4975326;28;20053;-57
2021/09/02 07:54:52;;;;;;;10.15;3.00;;;;;;;;;;4999134;28;20096;-56
2021/09/02 07:57:19;;;;;;;13.07;3.00;;;;;;;;;;4977457;28;20120;-56
2021/09/02 07:59:47;;;;;;;10.15;2.63;;;;;;;;;;4980333;28;20046;-56
2021/09/02 08:02:14;;;;;;;7.40;3.00;;;;;;;;;;4979080;28;20046;-55
2021/09/02 08:04:43;;;;;;;8.85;2.85;;;;;;;;;;4973607;28;20038;-56
2021/09/02 08:07:10;;;;;;;8.23;2.45;;;;;;;;;;4979324;28;20041;-56
2021/09/02 08:09:37;;;;;;;8.07;2.40;;;;;;;;;;4974099;28;20061;-55
2021/09/02 08:12:03;;;;;;;6.00;2.30;;;;;;;;;;4980605;28;20038;-57
2021/09/02 08:14:30;;;;;;;9.07;2.88;;;;;;;;;;4978280;28;20045;-57
2021/09/02 08:16:58;;;;;;;10.82;3.00;;;;;;;;;;4980832;28;20046;-56
2021/09/02 08:19:24;;;;;;;8.50;2.58;;;;;;;;;;4978492;28;20066;-57
2021/09/02 08:21:51;;;;;;;8.68;2.78;;;;;;;;;;4975711;28;20038;-58
2021/09/02 08:24:18;;;;;;;12.07;2.92;;;;;;;;;;4972914;28;20043;-55
2021/09/02 08:26:47;;;;;;;9.27;3.47;;;;;;;;;;4996152;28;20120;-57
2021/09/02 08:29:13;;;;;;;8.60;2.80;;;;;;;;;;4989067;28;20043;-56
2021/09/02 08:31:39;;;;;;;10.60;2.88;;;;;;;;;;4980074;28;20065;-57
2021/09/02 08:34:07;;;;;;;10.70;4.55;;;;;;;;;;4975306;28;20046;-56
2021/09/02 08:36:35;;;;;;;13.48;3.90;;;;;;;;;;4980528;28;20066;-56
2021/09/02 08:39:01;;;;;;;10.15;3.00;;;;;;;;;;4977823;28;20054;-57
2021/09/02 08:41:27;;;;;;;8.80;2.70;;;;;;;;;;4979033;28;20065;-57
2021/09/02 08:43:54;;;;;;;7.57;2.78;;;;;;;;;;4983231;28;20034;-57
2021/09/02 08:46:21;;;;;;;11.35;3.28;;;;;;;;;;4998506;28;20049;-57
2021/09/02 08:48:48;;;;;;;9.50;2.80;;;;;;;;;;4986472;28;20058;-55
2021/09/02 08:51:16;;;;;;;10.17;3.07;;;;;;;;;;4980109;28;20042;-54
2021/09/02 08:53:43;;;;;;;8.63;2.33;;;;;;;;;;4984599;28;20038;-56
2021/09/02 08:56:10;;;;;;;8.40;2.42;;;;;;;;;;4977944;28;20056;-57
2021/09/02 08:58:37;;;;;;;9.02;2.80;;;;;;;;;;4984429;28;20035;-56
2021/09/02 09:01:06;;;;;;;7.47;2.75;;;;;;;;;;4982206;28;20128;-58
2021/09/02 09:03:32;;;;;;;12.15;3.17;;;;;;;;;;4980557;28;20072;-58
2021/09/02 09:06:04;;;;;;;7.45;2.78;;;;;;;;;;4979008;28;20050;-58
2021/09/02 09:08:35;;;;;;;8.23;2.53;;;;;;;;;;4977998;28;20070;-58
2021/09/02 09:11:15;;;;;;;6.32;2.35;;;;;;;;;;4979251;28;20061;-57
2021/09/02 09:13:42;;;;;;;6.60;2.70;;;;;;;;;;4982703;28;20050;-56
2021/09/02 09:16:08;;;;;;;8.23;2.63;;;;;;;;;;4977112;28;20038;-57
2021/09/02 09:18:42;;;;;;;12.77;3.13;;;;;;;;;;4999444;28;20149;-58
2021/09/02 09:21:09;;;;;;;8.30;2.60;;;;;;;;;;4975399;28;20049;-57
2021/09/02 09:23:58;;;;;;;11.93;2.97;;;;;;;;;;4981793;28;20057;-57
2021/09/02 09:26:25;;;;;;;6.35;2.63;;;;;;;;;;4973828;28;20042;-57
2021/09/02 09:28:52;;;;;;;8.30;2.90;;;;;;;;;;4984512;28;20045;-57
2021/09/02 09:31:29;;;;;;;9.98;3.10;;;;;;;;;;4976045;28;20049;-58
2021/09/02 09:33:56;;;;;;;10.57;2.60;;;;;;;;;;5000356;28;20041;-56
2021/09/02 09:36:23;;;;;;;8.18;3.00;;;;;;;;;;4975830;28;20035;-53
2021/09/02 09:39:03;;;;;;;9.32;2.92;;;;;;;;;;4997303;28;20041;-56
2021/09/02 09:41:30;;;;;;;11.00;3.47;;;;;;;;;;4977557;28;20065;-55
2021/09/02 09:44:12;;;;;;;11.27;3.05;;;;;;;;;;4982274;28;20441;-58
2021/09/02 09:46:40;;;;;;;9.68;2.80;;;;;;;;;;4983898;28;20042;-57
2021/09/02 09:49:07;;;;;;;10.57;3.38;;;;;;;;;;4984723;28;20052;-57
2021/09/02 09:51:33;;;;;;;10.82;3.53;;;;;;;;;;4976997;28;20061;-56
2021/09/02 09:54:02;;;;;;;9.95;3.40;;;;;;;;;;4993181;28;20050;-58
2021/09/02 09:56:28;;;;;;;;;;;;;;;;;;4985131;28;20182;-58
2021/09/02 09:58:56;;;;;;;8.27;3.03;;;;;;;;;;4976662;28;19937;-58
2021/09/02 10:01:24;;;;;;;7.32;3.10;;;;;;;;;;4981918;28;20053;-58
2021/09/02 10:03:52;;;;;;;9.70;2.58;;;;;;;;;;4978306;28;20046;-57
2021/09/02 10:06:19;;;;;;;8.37;2.63;;;;;;;;;;4999753;28;20034;-58
2021/09/02 10:08:46;;;;;;;6.88;2.40;;;;;;;;;;4994580;28;20050;-57
2021/09/02 10:11:15;;;;;;;8.52;2.80;;;;;;;;;;4983269;28;20065;-57
2021/09/02 10:13:42;;;;;;;12.68;3.80;;;;;;;;;;4979226;28;20042;-58
2021/09/02 10:16:08;;;;;;;10.15;3.35;;;;;;;;;;4982131;28;20144;-57
2021/09/02 10:18:37;;;;;;;8.02;3.00;;;;;;;;;;4993191;28;20070;-58
2021/09/02 10:21:07;;;;;;;8.30;2.88;;;;;;;;;;5001485;28;20034;-58
2021/09/02 10:23:35;;;;;;;9.23;2.97;;;;;;;;;;4997236;28;20161;-59
2021/09/02 10:26:02;;;;;;;21.65;3.08;;;;;;;;;;4983058;28;20048;-57
2021/09/02 10:28:33;;;;;;;9.02;2.90;;;;;;;;;;4996766;28;20042;-56
2021/09/02 10:31:01;;;;;;;7.47;2.65;;;;;;;;;;4981044;28;20046;-58
2021/09/02 10:33:45;;;;;;;8.43;2.70;;;;;;;;;;4975050;28;20043;-56
2021/09/02 10:36:30;;;;;;;9.38;3.38;;;;;;;;;;4973825;28;20120;-59
2021/09/02 10:38:58;;;;;;;8.45;2.97;;;;;;;;;;4993768;28;20034;-58
2021/09/02 10:41:40;;;;;;;10.93;3.13;;;;;;;;;;4978402;28;20038;-57
2021/09/02 10:44:09;;;;;;;10.60;3.25;;;;;;;;;;4995020;28;20043;-59
2021/09/02 10:46:35;;;;;;;;;;;;;;;;;;4979847;28;20038;-57
2021/09/02 10:49:15;;;;;;;15.10;3.00;;;;;;;;;;4978285;28;19961;-58
2021/09/02 10:51:42;;;;;;;11.23;2.97;;;;;;;;;;4980115;28;20046;-58
2021/09/02 10:54:09;;;;;;;7.90;2.78;;;;;;;;;;4978444;28;20042;-57
2021/09/02 10:56:52;;;;;;;9.20;2.90;;;;;;;;;;4979604;28;20053;-58
2021/09/02 10:59:33;;;;;;;9.63;3.60;;;;;;;;;;4982019;28;20043;-57
2021/09/02 11:02:03;;;;;;;9.68;3.33;;;;;;;;;;4978387;28;20058;-58
2021/09/02 11:04:30;;;;;;;8.95;2.88;;;;;;;;;;4980878;28;20058;-56
2021/09/02 11:06:56;;;;;;;9.48;3.03;;;;;;;;;;4980716;28;20042;-56
2021/09/02 11:09:30;;;;;;;8.95;3.35;;;;;;;;;;4981633;28;20042;-57
2021/09/02 11:11:57;;;;;;;9.25;3.35;;;;;;;;;;4977577;28;20057;-57
2021/09/02 11:14:27;;;;;;;11.20;3.58;;;;;;;;;;4978033;28;20050;-58
2021/09/02 11:16:55;;;;;;;13.43;3.88;;;;;;;;;;4975532;28;20042;-55
2021/09/02 11:19:33;;;;;;;13.75;3.92;;;;;;;;;;4981518;28;20073;-59
2021/09/02 11:22:10;;;;;;;12.27;3.67;;;;;;;;;;4977877;28;20046;-58
2021/09/02 11:24:38;;;;;;;11.25;3.40;;;;;;;;;;4996273;28;20125;-58
2021/09/02 11:27:04;;;;;;;11.37;3.17;;;;;;;;;;4978089;28;20058;-59
2021/09/02 11:29:31;;;;;;;10.35;4.15;;;;;;;;;;4977605;28;20046;-58
2021/09/02 11:31:58;;;;;;;13.13;4.18;;;;;;;;;;4996984;28;20033;-58
2021/09/02 11:34:25;;;;;;;12.05;4.43;;;;;;;;;;4982414;28;20069;-58
2021/09/02 11:36:53;;;;;;;12.50;4.10;;;;;;;;;;4979746;28;20057;-59
2021/09/02 11:39:19;;;;;;;11.48;4.63;;;;;;;;;;4997387;28;20050;-59
2021/09/02 11:41:47;;;;;;;11.98;4.15;;;;;;;;;;4974408;28;20049;-59
2021/09/02 11:44:17;;;;;;;12.23;4.43;;;;;;;;;;4979701;28;20058;-59
2021/09/02 11:46:44;;;;;;;7.93;3.38;;;;;;;;;;4975353;28;20049;-58
2021/09/02 11:49:15;;;;;;;12.65;3.92;;;;;;;;;;4982244;28;20030;-59
2021/09/02 11:51:42;;;;;;;14.77;5.45;;;;;;;;;;4992138;28;20054;-59
2021/09/02 11:54:13;;;;;;;8.10;3.72;;;;;;;;;;4977365;28;20049;-58
2021/09/02 11:56:41;;;;;;;12.85;3.90;;;;;;;;;;4974128;28;20144;-59
2021/09/02 11:59:08;;;;;;;10.52;4.35;;;;;;;;;;4977582;28;20120;-60
2021/09/02 12:01:41;;;;;;;11.98;4.75;;;;;;;;;;4980344;28;20057;-59
2021/09/02 12:04:07;;;;;;;10.85;4.10;;;;;;;;;;4991738;28;20038;-59
2021/09/02 12:06:34;;;;;;;8.02;3.78;;;;;;;;;;4966714;28;20038;-58
2021/09/02 12:09:02;;;;;;;12.68;4.38;;;;;;;;;;4995183;28;20053;-58
2021/09/02 12:11:30;;;;;;;12.63;5.57;;;;;;;;;;4999883;28;20042;-59
2021/09/02 12:13:57;;;;;;;13.23;4.32;;;;;;;;;;4973115;28;20042;-59
2021/09/02 12:16:31;;;;;;;11.68;4.35;;;;;;;;;;4976764;28;20043;-58
2021/09/02 12:18:59;;;;;;;15.13;4.82;;;;;;;;;;4974881;28;20038;-59
2021/09/02 12:21:28;;;;;;;13.43;4.00;;;;;;;;;;4981818;28;20050;-59
2021/09/02 12:23:56;;;;;;;12.10;4.68;;;;;;;;;;4995655;28;20041;-59
2021/09/02 12:26:23;;;;;;;13.55;4.45;;;;;;;;;;4994524;28;20140;-58
2021/09/02 12:28:53;;;;;;;12.20;4.20;;;;;;;;;;4976011;28;20038;-59
2021/09/02 12:31:21;;;;;;;10.23;4.22;;;;;;;;;;4979122;28;20046;-59
2021/09/02 12:33:55;;;;;;;10.88;3.47;;;;;;;;;;4972033;28;20062;-59
2021/09/02 12:36:21;;;;;;;9.43;3.75;;;;;;;;;;4978771;28;20046;-59
2021/09/02 12:38:48;;;;;;;11.27;3.78;;;;;;;;;;4974977;28;20061;-58
2021/09/02 12:41:15;;;;;;;10.63;3.63;;;;;;;;;;4981933;28;20076;-59
2021/09/02 12:43:56;;;;;;;16.27;4.03;;;;;;;;;;4990868;28;20054;-59
2021/09/02 12:46:24;;;;;;;11.13;4.68;;;;;;;;;;4997348;28;20046;-59
2021/09/02 12:48:51;;;;;;;9.13;3.78;;;;;;;;;;4978855;28;20038;-59
2021/09/02 12:51:21;;;;;;;12.38;4.03;;;;;;;;;;4981382;28;20070;-59
2021/09/02 12:53:48;;;;;;;11.43;3.40;;;;;;;;;;4980114;28;20110;-59
2021/09/02 12:56:18;;;;;;;12.45;4.20;;;;;;;;;;4979539;28;20100;-59
2021/09/02 12:58:45;;;;;;;13.05;5.20;;;;;;;;;;4978350;28;20066;-59
2021/09/02 13:01:11;;;;;;;9.38;3.88;;;;;;;;;;4974668;28;20045;-59
2021/09/02 13:03:39;;;;;;;8.00;3.22;;;;;;;;;;4993820;28;20047;-59
2021/09/02 13:06:07;;;;;;;11.80;3.70;;;;;;;;;;4965588;28;20031;-59
2021/09/02 13:08:34;;;;;;;11.73;3.90;;;;;;;;;;4981806;28;20061;-59
2021/09/02 13:11:00;;;;;;;9.95;4.22;;;;;;;;;;4957786;28;20054;-59
2021/09/02 13:13:26;;;;;;;10.32;4.10;;;;;;;;;;4979983;28;20043;-59
2021/09/02 13:15:53;;;;;;;7.93;3.42;;;;;;;;;;4960090;28;20059;-58
2021/09/02 13:18:24;;;;;;;11.75;3.42;;;;;;;;;;4962925;28;20062;-59
2021/09/02 13:20:50;;;;;;;;;;;;;;;;;;4961153;28;20054;-58
2021/09/02 13:23:18;;;;;;;13.48;3.55;;;;;;;;;;4960354;28;19937;-59
2021/09/02 13:25:50;;;;;;;12.50;3.85;;;;;;;;;;4959524;28;20066;-59
2021/09/02 13:28:18;;;;;;;13.50;4.70;;;;;;;;;;4982721;28;20152;-59
2021/09/02 13:30:47;;;;;;;13.35;4.55;;;;;;;;;;4962300;28;20053;-59
2021/09/02 13:33:15;;;;;;;;;;;;;;;;;;4967612;28;20062;-59
2021/09/02 13:35:41;;;;;;;8.75;3.85;;;;;;;;;;4958388;28;19918;-60
2021/09/02 13:38:08;;;;;;;11.85;4.93;;;;;;;;;;4982446;28;20039;-59
2021/09/02 13:40:37;;;;;;;11.43;4.28;;;;;;;;;;4964802;28;20057;-59
2021/09/02 13:43:06;;;;;;;16.27;4.18;;;;;;;;;;4981288;28;20050;-60
2021/09/02 13:45:32;;;;;;;10.30;4.80;;;;;;;;;;4963804;28;20109;-59
2021/09/02 13:47:58;;;;;;;8.50;3.83;;;;;;;;;;4978447;28;20079;-60
2021/09/02 13:50:27;;;;;;;10.88;3.45;;;;;;;;;;4965675;28;20068;-58
2021/09/02 13:52:53;;;;;;;;;;;;;;;;;;4961551;28;20039;-60
2021/09/02 13:55:20;;;;;;;9.90;3.78;;;;;;;;;;4977989;28;20000;-59
2021/09/02 13:57:47;;;;;;;10.82;4.03;;;;;;;;;;4961126;28;20166;-60
2021/09/02 14:00:14;;;;;;;9.77;3.45;;;;;;;;;;4981463;28;20042;-60
2021/09/02 14:02:41;;;;;;;8.65;3.05;;;;;;;;;;4976908;28;20059;-60
2021/09/02 14:05:08;;;;;;;13.93;3.95;;;;;;;;;;4964959;28;20047;-60
2021/09/02 14:07:35;;;;;;;9.20;3.90;;;;;;;;;;4979585;28;20034;-60
2021/09/02 14:10:01;;;;;;;34.83;4.50;;;;;;;;;;4964725;28;20174;-60
2021/09/02 14:12:28;;;;;;;9.35;3.58;;;;;;;;;;4960373;28;20243;-60
2021/09/02 14:14:55;;;;;;;8.90;3.97;;;;;;;;;;4966464;28;20057;-60
2021/09/02 14:17:22;;;;;;;14.65;4.40;;;;;;;;;;4960170;28;20075;-60
2021/09/02 14:19:50;;;;;;;10.68;3.88;;;;;;;;;;4968320;28;20047;-60
2021/09/02 14:22:18;;;;;;;10.30;4.35;;;;;;;;;;4961964;28;20054;-59
2021/09/02 14:24:45;;;;;;;7.88;3.13;;;;;;;;;;4966102;28;20089;-61
2021/09/02 14:27:11;;;;;;;8.57;3.28;;;;;;;;;;4966624;28;20042;-61
2021/09/02 14:29:37;;;;;;;10.98;3.70;;;;;;;;;;4965608;28;20073;-61
2021/09/02 14:32:08;;;;;;;13.73;3.40;;;;;;;;;;4965581;28;20041;-61
2021/09/02 14:34:35;;;;;;;9.70;3.28;;;;;;;;;;4963559;28;20051;-60
2021/09/02 14:37:02;;;;;;;10.85;3.97;;;;;;;;;;4966619;28;20054;-60